Terminal Aerodrome Forecast
Issued by NWS Wilmington, OH

Current Version | Previous Version | Graphics & Text | Print | Product List | Glossary On
Versions: 1 2 3 4 5 6 7 8 9 10 11 12 13 14 15 16 17
000
FTUS41 KILN 292044 AAA
TAFDAY
TAF AMD
KDAY 292044Z 2921/3018 27007KT P6SM VCTS SCT040CB BKN200
      TEMPO 2921/2922 25020KT 3SM -TSRA BR BKN035CB
     FM292200 30006KT P6SM SCT120
     FM300600 32007KT P6SM SCT020
     FM301400 30007KT P6SM FEW035=

USA.gov is the U.S. government's official web portal to all federal, state and local government web resources and services.